Mulberry, Kansas
Current Conditions -  °F | °C
As of 5:15 PM on Thursday 27 Nov 2014 (Local Time) from KPTS Reporting Station
Clear Clear  
Wind Chill: 35°   Ceiling: Unl
Heat Index: 38°   Visibility: 10mi
Dew Point: 25°   Wind: 5mph
Humidity: 60%   Direction: 160°SSE
Pressure: 30.38"   Gusts: NA
Location:  37.56°N, 94.62°W
Report Text: KPTS 272315Z AUTO 16004KT 10SM CLR 03/M04 A3038 RMK AO2 T00341038
Loading
Personal Weather Stations






























Interactive Weather Map New forecast layout! Learn more

10-Day Weather Forecast

Advertisements
Track Severe Weather on mobile